sensor_id;sensor_type;location;lat;lon;timestamp;P1;durP1;ratioP1;P2;durP2;ratioP2
63394;SDS011;49531;-34.520;150.798;2023-04-06T00:00:33;1.10;;;0.50;;
63394;SDS011;49531;-34.520;150.798;2023-04-06T00:03:01;2.67;;;0.80;;
63394;SDS011;49531;-34.520;150.798;2023-04-06T00:05:28;0.88;;;0.55;;
63394;SDS011;49531;-34.520;150.798;2023-04-06T00:07:57;1.60;;;0.60;;
63394;SDS011;49531;-34.520;150.798;2023-04-06T00:10:25;0.90;;;0.50;;
63394;SDS011;49531;-34.520;150.798;2023-04-06T00:12:52;1.45;;;0.60;;
63394;SDS011;49531;-34.520;150.798;2023-04-06T00:15:20;1.73;;;0.68;;
63394;SDS011;49531;-34.520;150.798;2023-04-06T00:17:47;3.03;;;0.70;;
63394;SDS011;49531;-34.520;150.798;2023-04-06T00:20:14;2.03;;;0.70;;
63394;SDS011;49531;-34.520;150.798;2023-04-06T00:22:41;3.63;;;0.60;;
63394;SDS011;49531;-34.520;150.798;2023-04-06T00:25:09;0.68;;;0.50;;
63394;SDS011;49531;-34.520;150.798;2023-04-06T00:27:37;0.80;;;0.50;;
63394;SDS011;49531;-34.520;150.798;2023-04-06T00:30:05;1.42;;;0.60;;
63394;SDS011;49531;-34.520;150.798;2023-04-06T00:32:33;2.53;;;0.60;;
63394;SDS011;49531;-34.520;150.798;2023-04-06T00:35:02;0.98;;;0.70;;
63394;SDS011;49531;-34.520;150.798;2023-04-06T00:37:30;3.17;;;0.60;;
63394;SDS011;49531;-34.520;150.798;2023-04-06T00:39:57;1.33;;;0.68;;
63394;SDS011;49531;-34.520;150.798;2023-04-06T00:42:24;1.17;;;0.73;;
63394;SDS011;49531;-34.520;150.798;2023-04-06T00:44:52;2.42;;;0.80;;
63394;SDS011;49531;-34.520;150.798;2023-04-06T00:47:20;1.20;;;0.70;;
63394;SDS011;49531;-34.520;150.798;2023-04-06T00:49:48;1.80;;;0.70;;
63394;SDS011;49531;-34.520;150.798;2023-04-06T00:52:15;2.83;;;0.75;;
63394;SDS011;49531;-34.520;150.798;2023-04-06T00:54:43;3.95;;;0.80;;
63394;SDS011;49531;-34.520;150.798;2023-04-06T00:57:11;1.85;;;0.80;;
63394;SDS011;49531;-34.520;150.798;2023-04-06T00:59:39;2.65;;;0.80;;
63394;SDS011;49531;-34.520;150.798;2023-04-06T01:02:06;1.27;;;0.77;;
63394;SDS011;49531;-34.520;150.798;2023-04-06T01:04:34;1.23;;;0.70;;
63394;SDS011;49531;-34.520;150.798;2023-04-06T01:07:01;1.98;;;0.82;;
63394;SDS011;49531;-34.520;150.798;2023-04-06T01:09:29;2.40;;;1.00;;
63394;SDS011;49531;-34.520;150.798;2023-04-06T01:11:57;1.40;;;0.80;;
63394;SDS011;49531;-34.520;150.798;2023-04-06T01:14:25;2.85;;;0.90;;
63394;SDS011;49531;-34.520;150.798;2023-04-06T01:16:52;1.35;;;0.82;;
63394;SDS011;49531;-34.520;150.798;2023-04-06T01:19:19;1.67;;;0.80;;
63394;SDS011;49531;-34.520;150.798;2023-04-06T01:21:49;3.22;;;0.82;;
63394;SDS011;49531;-34.520;150.798;2023-04-06T01:24:18;2.22;;;0.80;;
63394;SDS011;49531;-34.520;150.798;2023-04-06T01:26:46;1.95;;;0.90;;
63394;SDS011;49531;-34.520;150.798;2023-04-06T01:29:13;1.95;;;0.90;;
63394;SDS011;49531;-34.520;150.798;2023-04-06T01:31:40;0.98;;;0.75;;
63394;SDS011;49531;-34.520;150.798;2023-04-06T01:34:08;1.92;;;1.00;;
63394;SDS011;49531;-34.520;150.798;2023-04-06T01:36:35;2.08;;;1.10;;
63394;SDS011;49531;-34.520;150.798;2023-04-06T01:39:02;2.05;;;1.00;;
63394;SDS011;49531;-34.520;150.798;2023-04-06T01:41:30;1.75;;;1.00;;
63394;SDS011;49531;-34.520;150.798;2023-04-06T01:43:57;1.98;;;1.00;;
63394;SDS011;49531;-34.520;150.798;2023-04-06T01:46:27;2.63;;;1.10;;
63394;SDS011;49531;-34.520;150.798;2023-04-06T01:48:54;3.75;;;1.20;;
63394;SDS011;49531;-34.520;150.798;2023-04-06T01:51:21;2.83;;;1.17;;
63394;SDS011;49531;-34.520;150.798;2023-04-06T01:53:49;2.72;;;1.20;;
63394;SDS011;49531;-34.520;150.798;2023-04-06T01:56:17;4.40;;;1.50;;
63394;SDS011;49531;-34.520;150.798;2023-04-06T01:58:44;4.88;;;1.50;;
63394;SDS011;49531;-34.520;150.798;2023-04-06T02:01:11;2.65;;;1.40;;
63394;SDS011;49531;-34.520;150.798;2023-04-06T02:03:38;3.53;;;1.52;;
63394;SDS011;49531;-34.520;150.798;2023-04-06T02:06:05;4.63;;;1.70;;
63394;SDS011;49531;-34.520;150.798;2023-04-06T02:08:32;5.22;;;1.70;;
63394;SDS011;49531;-34.520;150.798;2023-04-06T02:10:59;3.58;;;1.33;;
63394;SDS011;49531;-34.520;150.798;2023-04-06T02:13:27;6.15;;;1.50;;
63394;SDS011;49531;-34.520;150.798;2023-04-06T02:15:54;2.40;;;1.30;;
63394;SDS011;49531;-34.520;150.798;2023-04-06T02:18:21;3.08;;;1.30;;
63394;SDS011;49531;-34.520;150.798;2023-04-06T02:20:48;6.45;;;1.55;;
63394;SDS011;49531;-34.520;150.798;2023-04-06T02:23:15;3.20;;;1.20;;
63394;SDS011;49531;-34.520;150.798;2023-04-06T02:25:42;2.90;;;1.40;;
63394;SDS011;49531;-34.520;150.798;2023-04-06T02:28:09;3.15;;;1.35;;
63394;SDS011;49531;-34.520;150.798;2023-04-06T02:30:36;5.80;;;1.50;;
63394;SDS011;49531;-34.520;150.798;2023-04-06T02:33:03;3.65;;;1.50;;
63394;SDS011;49531;-34.520;150.798;2023-04-06T02:35:30;4.38;;;1.30;;
63394;SDS011;49531;-34.520;150.798;2023-04-06T02:37:58;7.00;;;1.50;;
63394;SDS011;49531;-34.520;150.798;2023-04-06T02:40:25;5.75;;;1.40;;
63394;SDS011;49531;-34.520;150.798;2023-04-06T02:42:52;4.97;;;1.27;;
63394;SDS011;49531;-34.520;150.798;2023-04-06T02:45:19;6.38;;;1.45;;
63394;SDS011;49531;-34.520;150.798;2023-04-06T02:47:46;5.25;;;1.23;;
63394;SDS011;49531;-34.520;150.798;2023-04-06T02:50:13;4.03;;;1.20;;
63394;SDS011;49531;-34.520;150.798;2023-04-06T02:52:41;4.32;;;1.17;;
63394;SDS011;49531;-34.520;150.798;2023-04-06T02:55:08;3.58;;;1.13;;
63394;SDS011;49531;-34.520;150.798;2023-04-06T02:57:35;4.10;;;1.20;;
63394;SDS011;49531;-34.520;150.798;2023-04-06T03:00:02;6.35;;;1.30;;
63394;SDS011;49531;-34.520;150.798;2023-04-06T03:02:30;4.30;;;1.10;;
63394;SDS011;49531;-34.520;150.798;2023-04-06T03:04:57;5.50;;;1.30;;
63394;SDS011;49531;-34.520;150.798;2023-04-06T03:07:24;6.07;;;1.75;;
63394;SDS011;49531;-34.520;150.798;2023-04-06T03:09:51;5.07;;;1.55;;
63394;SDS011;49531;-34.520;150.798;2023-04-06T03:12:18;6.60;;;1.80;;
63394;SDS011;49531;-34.520;150.798;2023-04-06T03:14:45;4.43;;;1.60;;
63394;SDS011;49531;-34.520;150.798;2023-04-06T03:17:13;4.68;;;1.40;;
63394;SDS011;49531;-34.520;150.798;2023-04-06T03:19:40;4.82;;;1.50;;
63394;SDS011;49531;-34.520;150.798;2023-04-06T03:22:07;4.55;;;1.40;;
63394;SDS011;49531;-34.520;150.798;2023-04-06T03:24:34;5.05;;;1.40;;
63394;SDS011;49531;-34.520;150.798;2023-04-06T03:27:01;5.60;;;1.30;;
63394;SDS011;49531;-34.520;150.798;2023-04-06T03:29:28;6.68;;;1.20;;
63394;SDS011;49531;-34.520;150.798;2023-04-06T03:31:56;4.80;;;1.30;;
63394;SDS011;49531;-34.520;150.798;2023-04-06T03:34:23;5.65;;;1.27;;
63394;SDS011;49531;-34.520;150.798;2023-04-06T03:36:50;4.82;;;1.20;;
63394;SDS011;49531;-34.520;150.798;2023-04-06T03:39:18;4.53;;;1.20;;
63394;SDS011;49531;-34.520;150.798;2023-04-06T03:41:45;3.30;;;1.10;;
63394;SDS011;49531;-34.520;150.798;2023-04-06T03:44:12;3.70;;;1.25;;
63394;SDS011;49531;-34.520;150.798;2023-04-06T03:46:40;2.63;;;1.20;;
63394;SDS011;49531;-34.520;150.798;2023-04-06T03:49:07;3.95;;;1.30;;
63394;SDS011;49531;-34.520;150.798;2023-04-06T03:51:35;3.95;;;1.38;;
63394;SDS011;49531;-34.520;150.798;2023-04-06T03:54:02;2.83;;;0.95;;
63394;SDS011;49531;-34.520;150.798;2023-04-06T03:56:29;2.55;;;1.00;;
63394;SDS011;49531;-34.520;150.798;2023-04-06T03:58:56;2.63;;;0.90;;
63394;SDS011;49531;-34.520;150.798;2023-04-06T04:01:23;3.38;;;1.10;;
63394;SDS011;49531;-34.520;150.798;2023-04-06T04:03:50;2.28;;;1.23;;
63394;SDS011;49531;-34.520;150.798;2023-04-06T04:06:17;2.72;;;1.20;;
63394;SDS011;49531;-34.520;150.798;2023-04-06T04:08:44;2.40;;;1.10;;
63394;SDS011;49531;-34.520;150.798;2023-04-06T04:11:11;1.92;;;1.00;;
63394;SDS011;49531;-34.520;150.798;2023-04-06T04:13:41;2.72;;;1.05;;
63394;SDS011;49531;-34.520;150.798;2023-04-06T04:16:08;2.58;;;0.90;;
63394;SDS011;49531;-34.520;150.798;2023-04-06T04:18:35;2.45;;;1.00;;
63394;SDS011;49531;-34.520;150.798;2023-04-06T04:21:03;3.42;;;1.10;;
63394;SDS011;49531;-34.520;150.798;2023-04-06T04:23:30;2.55;;;1.00;;
63394;SDS011;49531;-34.520;150.798;2023-04-06T04:25:57;1.58;;;1.00;;
63394;SDS011;49531;-34.520;150.798;2023-04-06T04:28:24;2.03;;;1.00;;
63394;SDS011;49531;-34.520;150.798;2023-04-06T04:30:51;2.25;;;1.02;;
63394;SDS011;49531;-34.520;150.798;2023-04-06T04:33:18;3.40;;;1.10;;
63394;SDS011;49531;-34.520;150.798;2023-04-06T04:35:45;2.05;;;1.00;;
63394;SDS011;49531;-34.520;150.798;2023-04-06T04:38:12;2.22;;;0.90;;
63394;SDS011;49531;-34.520;150.798;2023-04-06T04:40:39;3.30;;;1.15;;
63394;SDS011;49531;-34.520;150.798;2023-04-06T04:43:06;3.80;;;1.10;;
63394;SDS011;49531;-34.520;150.798;2023-04-06T04:45:34;3.78;;;1.00;;
63394;SDS011;49531;-34.520;150.798;2023-04-06T04:48:01;3.92;;;1.30;;
63394;SDS011;49531;-34.520;150.798;2023-04-06T04:50:28;2.70;;;1.30;;
63394;SDS011;49531;-34.520;150.798;2023-04-06T04:52:55;2.95;;;1.10;;
63394;SDS011;49531;-34.520;150.798;2023-04-06T04:55:22;3.08;;;1.20;;
63394;SDS011;49531;-34.520;150.798;2023-04-06T04:57:49;3.50;;;1.30;;
63394;SDS011;49531;-34.520;150.798;2023-04-06T05:00:17;2.88;;;1.15;;
63394;SDS011;49531;-34.520;150.798;2023-04-06T05:02:45;3.78;;;1.40;;
63394;SDS011;49531;-34.520;150.798;2023-04-06T05:05:12;3.10;;;1.15;;
63394;SDS011;49531;-34.520;150.798;2023-04-06T05:07:39;2.17;;;1.20;;
63394;SDS011;49531;-34.520;150.798;2023-04-06T05:10:06;1.80;;;1.00;;
63394;SDS011;49531;-34.520;150.798;2023-04-06T05:12:34;1.50;;;0.95;;
63394;SDS011;49531;-34.520;150.798;2023-04-06T05:15:01;3.00;;;1.00;;
63394;SDS011;49531;-34.520;150.798;2023-04-06T05:17:29;2.20;;;1.08;;
63394;SDS011;49531;-34.520;150.798;2023-04-06T05:19:56;2.13;;;0.75;;
63394;SDS011;49531;-34.520;150.798;2023-04-06T05:22:23;3.70;;;1.00;;
63394;SDS011;49531;-34.520;150.798;2023-04-06T05:24:50;3.00;;;1.00;;
63394;SDS011;49531;-34.520;150.798;2023-04-06T05:27:17;2.42;;;1.00;;
63394;SDS011;49531;-34.520;150.798;2023-04-06T05:29:45;3.80;;;0.90;;
63394;SDS011;49531;-34.520;150.798;2023-04-06T05:32:12;2.85;;;1.00;;
63394;SDS011;49531;-34.520;150.798;2023-04-06T05:34:39;2.47;;;1.00;;
63394;SDS011;49531;-34.520;150.798;2023-04-06T05:37:06;4.40;;;1.00;;
63394;SDS011;49531;-34.520;150.798;2023-04-06T05:39:34;1.42;;;0.93;;
63394;SDS011;49531;-34.520;150.798;2023-04-06T05:42:03;3.28;;;1.00;;
63394;SDS011;49531;-34.520;150.798;2023-04-06T05:44:32;3.15;;;1.02;;
63394;SDS011;49531;-34.520;150.798;2023-04-06T05:46:59;3.28;;;1.05;;
63394;SDS011;49531;-34.520;150.798;2023-04-06T05:49:26;4.80;;;1.00;;
63394;SDS011;49531;-34.520;150.798;2023-04-06T05:51:54;2.35;;;1.13;;
63394;SDS011;49531;-34.520;150.798;2023-04-06T05:54:21;4.55;;;1.20;;
63394;SDS011;49531;-34.520;150.798;2023-04-06T05:56:49;2.55;;;0.98;;
63394;SDS011;49531;-34.520;150.798;2023-04-06T05:59:16;2.67;;;1.00;;
63394;SDS011;49531;-34.520;150.798;2023-04-06T06:01:43;3.03;;;1.10;;
63394;SDS011;49531;-34.520;150.798;2023-04-06T06:04:10;3.05;;;1.00;;
63394;SDS011;49531;-34.520;150.798;2023-04-06T06:06:37;3.55;;;1.10;;
63394;SDS011;49531;-34.520;150.798;2023-04-06T06:09:04;3.55;;;1.10;;
63394;SDS011;49531;-34.520;150.798;2023-04-06T06:11:31;3.90;;;1.33;;
63394;SDS011;49531;-34.520;150.798;2023-04-06T06:13:59;2.35;;;1.08;;
63394;SDS011;49531;-34.520;150.798;2023-04-06T06:16:26;2.97;;;1.20;;
63394;SDS011;49531;-34.520;150.798;2023-04-06T06:18:53;1.80;;;1.00;;
63394;SDS011;49531;-34.520;150.798;2023-04-06T06:21:21;4.68;;;1.17;;
63394;SDS011;49531;-34.520;150.798;2023-04-06T06:23:48;4.88;;;1.20;;
63394;SDS011;49531;-34.520;150.798;2023-04-06T06:26:15;7.45;;;1.30;;
63394;SDS011;49531;-34.520;150.798;2023-04-06T06:28:43;4.82;;;1.30;;
63394;SDS011;49531;-34.520;150.798;2023-04-06T06:31:10;5.70;;;1.20;;
63394;SDS011;49531;-34.520;150.798;2023-04-06T06:33:38;3.42;;;1.30;;
63394;SDS011;49531;-34.520;150.798;2023-04-06T06:36:05;4.68;;;1.33;;
63394;SDS011;49531;-34.520;150.798;2023-04-06T06:38:32;6.50;;;1.58;;
63394;SDS011;49531;-34.520;150.798;2023-04-06T06:40:59;4.00;;;1.40;;
63394;SDS011;49531;-34.520;150.798;2023-04-06T06:43:26;2.90;;;1.30;;
63394;SDS011;49531;-34.520;150.798;2023-04-06T06:45:53;3.80;;;1.20;;
63394;SDS011;49531;-34.520;150.798;2023-04-06T06:48:20;2.33;;;1.20;;
63394;SDS011;49531;-34.520;150.798;2023-04-06T06:50:47;6.75;;;1.30;;
63394;SDS011;49531;-34.520;150.798;2023-04-06T06:53:15;4.15;;;1.33;;
63394;SDS011;49531;-34.520;150.798;2023-04-06T06:55:42;3.40;;;1.20;;
63394;SDS011;49531;-34.520;150.798;2023-04-06T06:58:10;2.45;;;1.20;;
63394;SDS011;49531;-34.520;150.798;2023-04-06T07:00:38;2.00;;;1.10;;
63394;SDS011;49531;-34.520;150.798;2023-04-06T07:03:05;3.97;;;1.20;;
63394;SDS011;49531;-34.520;150.798;2023-04-06T07:05:32;4.72;;;1.20;;
63394;SDS011;49531;-34.520;150.798;2023-04-06T07:07:59;1.45;;;0.90;;
63394;SDS011;49531;-34.520;150.798;2023-04-06T07:10:26;1.45;;;1.10;;
63394;SDS011;49531;-34.520;150.798;2023-04-06T07:12:53;2.00;;;1.00;;
63394;SDS011;49531;-34.520;150.798;2023-04-06T07:15:20;3.35;;;1.08;;
63394;SDS011;49531;-34.520;150.798;2023-04-06T07:17:48;1.98;;;1.15;;
63394;SDS011;49531;-34.520;150.798;2023-04-06T07:20:15;1.90;;;1.30;;
63394;SDS011;49531;-34.520;150.798;2023-04-06T07:22:43;2.83;;;1.05;;
63394;SDS011;49531;-34.520;150.798;2023-04-06T07:25:10;2.65;;;1.15;;
63394;SDS011;49531;-34.520;150.798;2023-04-06T07:27:37;2.55;;;1.10;;
63394;SDS011;49531;-34.520;150.798;2023-04-06T07:30:04;2.25;;;1.00;;
63394;SDS011;49531;-34.520;150.798;2023-04-06T07:32:33;2.33;;;1.10;;
63394;SDS011;49531;-34.520;150.798;2023-04-06T07:35:01;1.65;;;0.98;;
63394;SDS011;49531;-34.520;150.798;2023-04-06T07:37:28;3.10;;;1.20;;
63394;SDS011;49531;-34.520;150.798;2023-04-06T07:39:55;2.22;;;1.13;;
63394;SDS011;49531;-34.520;150.798;2023-04-06T07:42:22;2.47;;;1.10;;
63394;SDS011;49531;-34.520;150.798;2023-04-06T07:44:49;2.75;;;1.00;;
63394;SDS011;49531;-34.520;150.798;2023-04-06T07:47:16;1.20;;;0.90;;
63394;SDS011;49531;-34.520;150.798;2023-04-06T07:49:44;1.08;;;0.90;;
63394;SDS011;49531;-34.520;150.798;2023-04-06T07:52:11;1.98;;;1.10;;
63394;SDS011;49531;-34.520;150.798;2023-04-06T07:54:47;1.52;;;1.00;;
63394;SDS011;49531;-34.520;150.798;2023-04-06T07:57:14;1.80;;;1.10;;
63394;SDS011;49531;-34.520;150.798;2023-04-06T07:59:42;1.52;;;0.88;;
63394;SDS011;49531;-34.520;150.798;2023-04-06T08:02:09;1.98;;;0.98;;
63394;SDS011;49531;-34.520;150.798;2023-04-06T08:04:36;2.53;;;1.00;;
63394;SDS011;49531;-34.520;150.798;2023-04-06T08:07:03;1.65;;;0.98;;
63394;SDS011;49531;-34.520;150.798;2023-04-06T08:09:30;2.08;;;1.00;;
63394;SDS011;49531;-34.520;150.798;2023-04-06T08:11:57;2.75;;;1.10;;
63394;SDS011;49531;-34.520;150.798;2023-04-06T08:14:24;1.35;;;0.98;;
63394;SDS011;49531;-34.520;150.798;2023-04-06T08:16:51;2.10;;;0.90;;
63394;SDS011;49531;-34.520;150.798;2023-04-06T08:19:18;2.13;;;0.98;;
63394;SDS011;49531;-34.520;150.798;2023-04-06T08:21:46;1.10;;;0.90;;
63394;SDS011;49531;-34.520;150.798;2023-04-06T08:24:13;1.50;;;0.90;;
63394;SDS011;49531;-34.520;150.798;2023-04-06T08:26:40;2.45;;;1.08;;
63394;SDS011;49531;-34.520;150.798;2023-04-06T08:29:08;1.38;;;0.90;;
63394;SDS011;49531;-34.520;150.798;2023-04-06T08:31:35;3.58;;;1.00;;
63394;SDS011;49531;-34.520;150.798;2023-04-06T08:34:03;2.25;;;0.90;;
63394;SDS011;49531;-34.520;150.798;2023-04-06T08:36:33;1.98;;;0.90;;
63394;SDS011;49531;-34.520;150.798;2023-04-06T08:39:00;2.00;;;0.93;;
63394;SDS011;49531;-34.520;150.798;2023-04-06T08:41:27;1.05;;;0.85;;
63394;SDS011;49531;-34.520;150.798;2023-04-06T08:43:56;2.78;;;1.00;;
63394;SDS011;49531;-34.520;150.798;2023-04-06T08:46:25;1.42;;;1.00;;
63394;SDS011;49531;-34.520;150.798;2023-04-06T08:48:56;2.03;;;1.10;;
63394;SDS011;49531;-34.520;150.798;2023-04-06T08:51:24;1.10;;;1.00;;
63394;SDS011;49531;-34.520;150.798;2023-04-06T08:53:53;1.73;;;1.10;;
63394;SDS011;49531;-34.520;150.798;2023-04-06T08:56:21;2.25;;;1.13;;
63394;SDS011;49531;-34.520;150.798;2023-04-06T08:58:49;2.05;;;1.10;;
63394;SDS011;49531;-34.520;150.798;2023-04-06T09:01:18;1.55;;;1.20;;
63394;SDS011;49531;-34.520;150.798;2023-04-06T09:03:49;2.03;;;1.30;;
63394;SDS011;49531;-34.520;150.798;2023-04-06T09:06:17;1.70;;;1.00;;
63394;SDS011;49531;-34.520;150.798;2023-04-06T09:08:45;1.50;;;1.10;;
63394;SDS011;49531;-34.520;150.798;2023-04-06T09:11:15;2.65;;;1.20;;
63394;SDS011;49531;-34.520;150.798;2023-04-06T09:13:44;2.63;;;1.20;;
63394;SDS011;49531;-34.520;150.798;2023-04-06T09:16:13;3.30;;;1.23;;
63394;SDS011;49531;-34.520;150.798;2023-04-06T09:18:41;2.97;;;1.20;;
63394;SDS011;49531;-34.520;150.798;2023-04-06T09:21:08;2.30;;;1.20;;
63394;SDS011;49531;-34.520;150.798;2023-04-06T09:23:36;3.35;;;1.20;;
63394;SDS011;49531;-34.520;150.798;2023-04-06T09:26:08;4.07;;;1.20;;
63394;SDS011;49531;-34.520;150.798;2023-04-06T09:28:44;1.80;;;1.10;;
63394;SDS011;49531;-34.520;150.798;2023-04-06T09:31:15;3.42;;;1.30;;
63394;SDS011;49531;-34.520;150.798;2023-04-06T09:33:44;2.40;;;1.35;;
63394;SDS011;49531;-34.520;150.798;2023-04-06T09:36:12;2.45;;;1.20;;
63394;SDS011;49531;-34.520;150.798;2023-04-06T09:38:52;1.95;;;1.20;;
63394;SDS011;49531;-34.520;150.798;2023-04-06T09:41:24;3.50;;;1.30;;
63394;SDS011;49531;-34.520;150.798;2023-04-06T09:44:04;2.33;;;1.30;;
63394;SDS011;49531;-34.520;150.798;2023-04-06T09:46:35;2.00;;;1.20;;
63394;SDS011;49531;-34.520;150.798;2023-04-06T09:49:05;1.55;;;1.13;;
63394;SDS011;49531;-34.520;150.798;2023-04-06T09:51:38;2.33;;;1.08;;
63394;SDS011;49531;-34.520;150.798;2023-04-06T09:54:07;2.47;;;1.30;;
63394;SDS011;49531;-34.520;150.798;2023-04-06T09:56:39;2.67;;;1.10;;
63394;SDS011;49531;-34.520;150.798;2023-04-06T09:59:14;2.53;;;1.35;;
63394;SDS011;49531;-34.520;150.798;2023-04-06T10:01:51;1.77;;;1.20;;
63394;SDS011;49531;-34.520;150.798;2023-04-06T10:04:26;3.67;;;1.33;;
63394;SDS011;49531;-34.520;150.798;2023-04-06T10:07:06;2.13;;;1.20;;
63394;SDS011;49531;-34.520;150.798;2023-04-06T10:09:34;2.60;;;1.30;;
63394;SDS011;49531;-34.520;150.798;2023-04-06T10:12:03;4.07;;;1.17;;
63394;SDS011;49531;-34.520;150.798;2023-04-06T10:14:34;1.80;;;1.23;;
63394;SDS011;49531;-34.520;150.798;2023-04-06T10:17:04;2.20;;;1.20;;
63394;SDS011;49531;-34.520;150.798;2023-04-06T10:19:34;2.47;;;1.30;;
63394;SDS011;49531;-34.520;150.798;2023-04-06T10:22:09;2.25;;;1.20;;
63394;SDS011;49531;-34.520;150.798;2023-04-06T10:24:41;4.28;;;1.25;;
63394;SDS011;49531;-34.520;150.798;2023-04-06T10:27:08;1.65;;;1.10;;
63394;SDS011;49531;-34.520;150.798;2023-04-06T10:29:42;4.10;;;1.45;;
63394;SDS011;49531;-34.520;150.798;2023-04-06T10:32:10;3.70;;;1.30;;
63394;SDS011;49531;-34.520;150.798;2023-04-06T10:34:38;2.38;;;1.23;;
63394;SDS011;49531;-34.520;150.798;2023-04-06T10:37:14;2.40;;;1.20;;
63394;SDS011;49531;-34.520;150.798;2023-04-06T10:39:46;3.25;;;1.35;;
63394;SDS011;49531;-34.520;150.798;2023-04-06T10:42:24;1.60;;;1.10;;
63394;SDS011;49531;-34.520;150.798;2023-04-06T10:44:51;1.98;;;1.10;;
63394;SDS011;49531;-34.520;150.798;2023-04-06T10:47:18;1.55;;;1.27;;
63394;SDS011;49531;-34.520;150.798;2023-04-06T10:49:45;1.55;;;1.10;;
63394;SDS011;49531;-34.520;150.798;2023-04-06T10:52:12;2.03;;;1.10;;
63394;SDS011;49531;-34.520;150.798;2023-04-06T10:54:41;1.50;;;1.20;;
63394;SDS011;49531;-34.520;150.798;2023-04-06T10:57:10;1.88;;;1.30;;
63394;SDS011;49531;-34.520;150.798;2023-04-06T10:59:41;2.33;;;0.98;;
63394;SDS011;49531;-34.520;150.798;2023-04-06T11:02:09;2.35;;;1.40;;
63394;SDS011;49531;-34.520;150.798;2023-04-06T11:04:54;3.05;;;1.15;;
63394;SDS011;49531;-34.520;150.798;2023-04-06T11:07:23;1.60;;;1.20;;
63394;SDS011;49531;-34.520;150.798;2023-04-06T11:09:52;2.03;;;1.10;;
63394;SDS011;49531;-34.520;150.798;2023-04-06T11:12:21;2.45;;;1.30;;
63394;SDS011;49531;-34.520;150.798;2023-04-06T11:14:56;1.40;;;1.00;;
63394;SDS011;49531;-34.520;150.798;2023-04-06T11:17:30;2.88;;;1.13;;
63394;SDS011;49531;-34.520;150.798;2023-04-06T11:19:58;1.85;;;1.20;;
63394;SDS011;49531;-34.520;150.798;2023-04-06T11:22:26;1.65;;;1.10;;
63394;SDS011;49531;-34.520;150.798;2023-04-06T11:24:53;2.90;;;1.10;;
63394;SDS011;49531;-34.520;150.798;2023-04-06T11:27:33;2.97;;;1.20;;
63394;SDS011;49531;-34.520;150.798;2023-04-06T11:30:01;1.33;;;1.20;;
63394;SDS011;49531;-34.520;150.798;2023-04-06T11:32:28;3.35;;;1.10;;
63394;SDS011;49531;-34.520;150.798;2023-04-06T11:34:58;3.17;;;1.08;;
63394;SDS011;49531;-34.520;150.798;2023-04-06T11:37:26;1.98;;;1.20;;
63394;SDS011;49531;-34.520;150.798;2023-04-06T11:39:54;3.08;;;1.25;;
63394;SDS011;49531;-34.520;150.798;2023-04-06T11:42:23;2.72;;;1.10;;
63394;SDS011;49531;-34.520;150.798;2023-04-06T11:44:51;1.50;;;1.00;;
63394;SDS011;49531;-34.520;150.798;2023-04-06T11:47:26;1.85;;;1.00;;
63394;SDS011;49531;-34.520;150.798;2023-04-06T11:49:55;1.15;;;1.05;;
63394;SDS011;49531;-34.520;150.798;2023-04-06T11:52:31;2.00;;;1.20;;
63394;SDS011;49531;-34.520;150.798;2023-04-06T11:54:58;3.08;;;0.90;;
63394;SDS011;49531;-34.520;150.798;2023-04-06T11:57:36;1.65;;;1.10;;
63394;SDS011;49531;-34.520;150.798;2023-04-06T12:00:03;1.80;;;1.00;;
63394;SDS011;49531;-34.520;150.798;2023-04-06T12:02:30;1.40;;;0.93;;
63394;SDS011;49531;-34.520;150.798;2023-04-06T12:04:57;1.20;;;1.10;;
63394;SDS011;49531;-34.520;150.798;2023-04-06T12:07:25;1.90;;;1.20;;
63394;SDS011;49531;-34.520;150.798;2023-04-06T12:09:52;1.58;;;1.10;;
63394;SDS011;49531;-34.520;150.798;2023-04-06T12:12:19;1.42;;;1.08;;
63394;SDS011;49531;-34.520;150.798;2023-04-06T12:14:46;2.75;;;1.00;;
63394;SDS011;49531;-34.520;150.798;2023-04-06T12:17:13;2.20;;;1.08;;
63394;SDS011;49531;-34.520;150.798;2023-04-06T12:19:40;1.48;;;0.93;;
63394;SDS011;49531;-34.520;150.798;2023-04-06T12:22:07;2.35;;;1.00;;
63394;SDS011;49531;-34.520;150.798;2023-04-06T12:24:34;1.20;;;0.80;;
63394;SDS011;49531;-34.520;150.798;2023-04-06T12:27:01;1.25;;;0.80;;
63394;SDS011;49531;-34.520;150.798;2023-04-06T12:29:28;1.30;;;0.90;;
63394;SDS011;49531;-34.520;150.798;2023-04-06T12:31:55;1.20;;;0.95;;
63394;SDS011;49531;-34.520;150.798;2023-04-06T12:34:22;2.53;;;1.10;;
63394;SDS011;49531;-34.520;150.798;2023-04-06T12:36:50;0.90;;;0.80;;
63394;SDS011;49531;-34.520;150.798;2023-04-06T12:39:18;1.30;;;0.98;;
63394;SDS011;49531;-34.520;150.798;2023-04-06T12:41:46;1.58;;;0.98;;
63394;SDS011;49531;-34.520;150.798;2023-04-06T12:44:13;1.48;;;0.90;;
63394;SDS011;49531;-34.520;150.798;2023-04-06T12:46:40;1.17;;;0.90;;
63394;SDS011;49531;-34.520;150.798;2023-04-06T12:49:08;1.08;;;0.80;;
63394;SDS011;49531;-34.520;150.798;2023-04-06T12:51:35;1.00;;;0.90;;
63394;SDS011;49531;-34.520;150.798;2023-04-06T12:54:02;0.80;;;0.80;;
63394;SDS011;49531;-34.520;150.798;2023-04-06T12:56:29;1.40;;;1.00;;
63394;SDS011;49531;-34.520;150.798;2023-04-06T12:58:57;2.03;;;0.70;;
63394;SDS011;49531;-34.520;150.798;2023-04-06T13:01:24;1.35;;;0.80;;
63394;SDS011;49531;-34.520;150.798;2023-04-06T13:03:53;1.85;;;0.90;;
63394;SDS011;49531;-34.520;150.798;2023-04-06T13:06:20;1.23;;;0.80;;
63394;SDS011;49531;-34.520;150.798;2023-04-06T13:08:48;1.35;;;0.88;;
63394;SDS011;49531;-34.520;150.798;2023-04-06T13:11:15;2.67;;;0.80;;
63394;SDS011;49531;-34.520;150.798;2023-04-06T13:13:43;1.10;;;0.80;;
63394;SDS011;49531;-34.520;150.798;2023-04-06T13:16:10;2.72;;;0.77;;
63394;SDS011;49531;-34.520;150.798;2023-04-06T13:18:37;0.98;;;0.75;;
63394;SDS011;49531;-34.520;150.798;2023-04-06T13:21:05;1.63;;;0.90;;
63394;SDS011;49531;-34.520;150.798;2023-04-06T13:23:32;3.67;;;0.90;;
63394;SDS011;49531;-34.520;150.798;2023-04-06T13:26:00;1.88;;;0.80;;
63394;SDS011;49531;-34.520;150.798;2023-04-06T13:28:31;1.42;;;0.90;;
63394;SDS011;49531;-34.520;150.798;2023-04-06T13:30:59;1.05;;;0.77;;
63394;SDS011;49531;-34.520;150.798;2023-04-06T13:33:28;1.45;;;0.80;;
63394;SDS011;49531;-34.520;150.798;2023-04-06T13:35:56;1.88;;;0.80;;
63394;SDS011;49531;-34.520;150.798;2023-04-06T13:38:25;2.20;;;0.82;;
63394;SDS011;49531;-34.520;150.798;2023-04-06T13:40:53;1.42;;;0.80;;
63394;SDS011;49531;-34.520;150.798;2023-04-06T13:43:20;3.70;;;0.82;;
63394;SDS011;49531;-34.520;150.798;2023-04-06T13:45:49;0.98;;;0.80;;
63394;SDS011;49531;-34.520;150.798;2023-04-06T13:48:17;1.75;;;0.88;;
63394;SDS011;49531;-34.520;150.798;2023-04-06T13:50:44;1.77;;;0.80;;
63394;SDS011;49531;-34.520;150.798;2023-04-06T13:53:11;2.58;;;0.90;;
63394;SDS011;49531;-34.520;150.798;2023-04-06T13:55:39;1.33;;;0.85;;
63394;SDS011;49531;-34.520;150.798;2023-04-06T13:58:06;1.25;;;0.90;;
63394;SDS011;49531;-34.520;150.798;2023-04-06T14:00:33;2.03;;;0.80;;
63394;SDS011;49531;-34.520;150.798;2023-04-06T14:03:00;0.98;;;0.75;;
63394;SDS011;49531;-34.520;150.798;2023-04-06T14:05:32;1.50;;;0.80;;
63394;SDS011;49531;-34.520;150.798;2023-04-06T14:07:59;2.20;;;1.00;;
63394;SDS011;49531;-34.520;150.798;2023-04-06T14:10:26;2.45;;;0.85;;
63394;SDS011;49531;-34.520;150.798;2023-04-06T14:12:54;1.02;;;0.90;;